Time;durP1;ratioP1;P1;durP2;ratioP2;P2;SDS_P1;SDS_P2;PMS_P1;PMS_P2;Temp;Humidity;BMP_temperature;BMP_pressure;BME280_temperature;BME280_humidity;BME280_pressure;Samples;Min_cycle;Max_cycle;Signal;HPM_P1;HPM_P2
2023/03/05 00:02:04;;;;;;;87.60;51.75;;;0.00;99.90;;;;;;5052404;28;20493;-60
2023/03/05 00:04:29;;;;;;;84.85;51.50;;;0.10;99.90;;;;;;5052082;28;20025;-60
2023/03/05 00:06:55;;;;;;;84.28;50.97;;;0.10;99.90;;;;;;5051875;28;20033;-60
2023/03/05 00:09:21;;;;;;;85.03;51.45;;;0.00;99.90;;;;;;5051923;28;20056;-60
2023/03/05 00:11:46;;;;;;;84.28;50.72;;;0.00;99.90;;;;;;5051667;28;20067;-60
2023/03/05 00:14:12;;;;;;;88.55;52.33;;;0.10;99.90;;;;;;5051953;28;20037;-60
2023/03/05 00:16:38;;;;;;;90.78;54.88;;;-0.10;99.90;;;;;;5051949;28;20454;-60
2023/03/05 00:19:04;;;;;;;109.07;61.55;;;-0.10;99.90;;;;;;5051814;28;20035;-60
2023/03/05 00:21:34;;;;;;;95.05;55.97;;;-0.20;99.90;;;;;;5052776;28;20032;-60
2023/03/05 00:24:00;;;;;;;90.20;57.10;;;-0.30;99.90;;;;;;5055953;28;20017;-60
2023/03/05 00:26:28;;;;;;;99.90;60.10;;;-0.40;99.90;;;;;;5055471;28;20078;-59
2023/03/05 00:28:55;;;;;;;92.05;58.00;;;-0.40;99.90;;;;;;5055738;28;20039;-59
2023/03/05 00:31:25;;;;;;;87.47;54.85;;;-0.40;99.90;;;;;;5055663;28;20040;-59
2023/03/05 00:33:53;;;;;;;91.22;54.47;;;-0.40;99.90;;;;;;5055918;28;20478;-60
2023/03/05 00:36:19;;;;;;;87.63;53.90;;;-0.40;99.90;;;;;;5055953;28;20051;-60
2023/03/05 00:38:45;;;;;;;86.00;53.90;;;-0.50;99.90;;;;;;5055798;28;20033;-59
2023/03/05 00:41:11;;;;;;;84.32;54.78;;;-0.40;99.90;;;;;;5055323;28;20025;-60
2023/03/05 00:43:36;;;;;;;83.60;53.60;;;-0.40;99.90;;;;;;5055654;28;20025;-60
2023/03/05 00:46:03;;;;;;;89.78;54.30;;;-0.30;99.90;;;;;;5055491;28;20024;-60
2023/03/05 00:48:28;;;;;;;84.43;52.53;;;-0.40;99.90;;;;;;5055392;28;20021;-60
2023/03/05 00:50:54;;;;;;;90.28;54.60;;;-0.30;99.90;;;;;;5055272;28;20025;-60
2023/03/05 00:53:20;;;;;;;82.90;50.50;;;-0.50;99.90;;;;;;5055667;28;20025;-60
2023/03/05 00:55:46;;;;;;;76.68;49.63;;;-0.60;99.90;;;;;;5054969;28;20074;-60
2023/03/05 00:58:11;;;;;;;77.88;51.65;;;-0.60;99.90;;;;;;5055216;28;20397;-60
2023/03/05 01:00:37;;;;;;;76.63;48.88;;;-0.70;99.90;;;;;;5055443;28;20071;-60
2023/03/05 01:03:03;;;;;;;83.45;51.08;;;-0.80;99.90;;;;;;5055057;28;20025;-60
2023/03/05 01:05:28;;;;;;;79.55;49.60;;;-0.70;99.90;;;;;;5055094;28;20029;-60
2023/03/05 01:07:55;;;;;;;83.43;52.03;;;-0.60;99.90;;;;;;5055671;28;20025;-60
2023/03/05 01:10:22;;;;;;;80.45;51.08;;;-0.30;99.90;;;;;;5054747;28;20025;-60
2023/03/05 01:12:48;;;;;;;81.07;49.88;;;-0.40;99.90;;;;;;5054652;28;20482;-60
2023/03/05 01:15:14;;;;;;;82.55;50.30;;;-0.50;99.90;;;;;;5054998;28;20029;-60
2023/03/05 01:17:40;;;;;;;87.80;53.58;;;-0.50;99.90;;;;;;5055273;28;20375;-60
2023/03/05 01:20:08;;;;;;;85.53;51.47;;;-0.50;99.90;;;;;;5054945;28;20408;-60
2023/03/05 01:22:33;;;;;;;85.13;52.05;;;-0.60;99.90;;;;;;5054824;28;20032;-60
2023/03/05 01:24:59;;;;;;;80.63;51.35;;;-0.60;99.90;;;;;;5054416;28;20486;-60
2023/03/05 01:27:25;;;;;;;94.32;58.55;;;-0.70;99.90;;;;;;5054983;28;20360;-60
2023/03/05 01:29:51;;;;;;;87.70;54.17;;;-0.80;99.90;;;;;;5054267;28;20017;-60
2023/03/05 01:32:16;;;;;;;83.95;52.22;;;-0.80;99.90;;;;;;5054664;28;20060;-60
2023/03/05 01:34:42;;;;;;;77.07;49.88;;;-0.80;99.90;;;;;;5054601;28;20478;-60
2023/03/05 01:37:08;;;;;;;78.30;51.08;;;-0.90;99.90;;;;;;5054631;28;20029;-60
2023/03/05 01:39:35;;;;;;;84.00;52.92;;;-0.90;99.90;;;;;;5054170;28;20040;-60
2023/03/05 01:42:01;;;;;;;80.90;50.95;;;-0.90;99.90;;;;;;5054223;28;20033;-60
2023/03/05 01:44:29;;;;;;;82.53;50.22;;;-1.00;99.90;;;;;;5054402;28;20088;-60
2023/03/05 01:46:55;;;;;;;78.32;50.17;;;-1.00;99.90;;;;;;5054599;28;20424;-60
2023/03/05 01:49:34;;;;;;;85.80;53.20;;;-0.90;99.90;;;;;;5054172;28;20082;-60
2023/03/05 01:52:16;;;;;;;84.43;53.83;;;-0.80;99.90;;;;;;5054081;28;20502;-60
2023/03/05 01:54:52;;;;;;;85.90;52.33;;;-0.80;99.90;;;;;;5054368;28;20024;-60
2023/03/05 01:57:41;;;;;;;88.20;53.63;;;-1.00;99.90;;;;;;5053948;28;20059;-60
2023/03/05 02:00:11;;;;;;;90.50;55.70;;;-1.00;99.90;;;;;;5054153;28;20021;-60
2023/03/05 02:02:37;;;;;;;95.07;58.03;;;-1.10;99.90;;;;;;5054109;28;20032;-60
2023/03/05 02:05:09;;;;;;;91.60;57.13;;;-1.20;99.90;;;;;;5054197;28;20036;-60
2023/03/05 02:07:36;;;;;;;87.82;55.22;;;-1.20;99.90;;;;;;5053601;28;20036;-60
2023/03/05 02:10:17;;;;;;;87.22;51.20;;;-1.30;99.90;;;;;;5053691;28;20053;-60
2023/03/05 02:12:43;;;;;;;81.95;49.75;;;-1.20;99.90;;;;;;5052249;28;20496;-60
2023/03/05 02:15:11;;;;;;;83.85;51.22;;;-1.30;99.90;;;;;;5054196;28;20112;-60
2023/03/05 02:17:36;;;;;;;86.30;51.65;;;-1.30;99.90;;;;;;5053735;28;20032;-60
2023/03/05 02:20:07;;;;;;;81.95;48.88;;;-1.20;99.90;;;;;;5053752;28;20029;-60
2023/03/05 02:22:33;;;;;;;79.50;47.50;;;-1.30;99.90;;;;;;5053279;28;20060;-60
2023/03/05 02:24:59;;;;;;;82.35;48.90;;;-1.40;99.90;;;;;;5053849;28;20060;-60
2023/03/05 02:27:33;;;;;;;77.40;49.50;;;-1.40;99.90;;;;;;5053618;28;20021;-60
2023/03/05 02:30:00;;;;;;;93.25;58.67;;;-1.30;99.90;;;;;;5053388;28;20582;-60
2023/03/05 02:32:26;;;;;;;92.75;57.92;;;-1.30;99.90;;;;;;5053562;28;20076;-60
2023/03/05 02:34:52;;;;;;;98.18;58.95;;;-1.30;99.90;;;;;;5053408;28;20056;-60
2023/03/05 02:37:17;;;;;;;92.55;58.70;;;-1.50;99.90;;;;;;5053077;28;20053;-60
2023/03/05 02:39:43;;;;;;;98.03;61.65;;;-1.40;99.90;;;;;;5053877;28;20401;-60
2023/03/05 02:42:09;;;;;;;94.53;58.15;;;-1.40;99.90;;;;;;5053255;28;20470;-60
2023/03/05 02:44:35;;;;;;;93.00;58.50;;;-1.40;99.90;;;;;;5052329;28;20032;-60
2023/03/05 02:47:00;;;;;;;96.00;61.42;;;-1.50;99.90;;;;;;5053188;28;20099;-60
2023/03/05 02:49:27;;;;;;;94.30;58.53;;;-1.50;99.90;;;;;;5053093;28;20035;-60
2023/03/05 02:51:53;;;;;;;86.32;56.03;;;-1.40;99.90;;;;;;5051463;28;20534;-60
2023/03/05 02:54:18;;;;;;;93.55;58.75;;;-1.50;99.90;;;;;;5052960;28;20029;-60
2023/03/05 02:56:44;;;;;;;99.32;60.70;;;-1.50;99.90;;;;;;5053100;28;20569;-60
2023/03/05 02:59:10;;;;;;;95.78;57.78;;;-1.40;99.90;;;;;;5053082;28;20029;-59
2023/03/05 03:01:36;;;;;;;88.82;54.83;;;-1.30;99.90;;;;;;5053327;28;20017;-60
2023/03/05 03:04:01;;;;;;;85.53;52.78;;;-1.30;99.90;;;;;;5052830;28;20078;-60
2023/03/05 03:06:27;;;;;;;88.70;56.95;;;-1.50;99.90;;;;;;5052607;28;20021;-60
2023/03/05 03:08:53;;;;;;;90.00;57.00;;;-1.60;99.90;;;;;;5053075;28;20029;-60
2023/03/05 03:11:20;;;;;;;88.80;53.03;;;-1.70;99.90;;;;;;5052756;28;20039;-60
2023/03/05 03:13:46;;;;;;;86.53;51.97;;;-1.70;99.90;;;;;;5052576;28;20060;-60
2023/03/05 03:16:14;;;;;;;81.07;50.25;;;-1.70;99.90;;;;;;5052622;28;20032;-60
2023/03/05 03:18:40;;;;;;;77.53;49.35;;;-1.70;99.90;;;;;;5052860;28;20426;-60
2023/03/05 03:21:06;;;;;;;79.93;49.75;;;-1.80;99.90;;;;;;5052371;28;20096;-60
2023/03/05 03:23:32;;;;;;;78.43;49.25;;;-1.80;99.90;;;;;;5052793;28;20433;-60
2023/03/05 03:25:58;;;;;;;75.43;47.40;;;-1.70;99.90;;;;;;5052498;28;20028;-60
2023/03/05 03:28:24;;;;;;;68.82;45.28;;;-1.60;99.90;;;;;;5052653;28;20028;-60
2023/03/05 03:30:50;;;;;;;77.00;48.33;;;-1.40;99.90;;;;;;5052468;28;20017;-60
2023/03/05 03:33:17;;;;;;;82.93;52.13;;;-1.50;99.90;;;;;;5052332;28;20071;-60
2023/03/05 03:35:44;;;;;;;76.10;48.38;;;-1.70;99.90;;;;;;5051894;28;20021;-60
2023/03/05 03:38:12;;;;;;;81.82;49.83;;;-1.80;99.90;;;;;;5052181;28;20036;-60
2023/03/05 03:40:39;;;;;;;84.13;52.60;;;-1.90;99.90;;;;;;5052788;28;20478;-60
2023/03/05 03:43:05;;;;;;;96.82;59.97;;;-1.90;99.90;;;;;;5052100;28;20025;-60
2023/03/05 03:45:30;;;;;;;89.82;56.55;;;-2.00;99.90;;;;;;5052248;28;20096;-60
2023/03/05 03:47:56;;;;;;;87.22;54.70;;;-2.00;99.90;;;;;;5052049;28;20395;-61
2023/03/05 03:50:23;;;;;;;84.47;53.50;;;-2.10;99.90;;;;;;5051965;28;20032;-59
2023/03/05 03:52:49;;;;;;;86.55;55.75;;;-2.10;99.90;;;;;;5051948;28;20441;-59
2023/03/05 03:55:15;;;;;;;87.20;52.72;;;-1.90;99.90;;;;;;5051990;28;20025;-60
2023/03/05 03:57:42;;;;;;;89.88;50.72;;;-1.90;99.90;;;;;;5052488;28;20021;-59
2023/03/05 04:00:10;;;;;;;83.88;49.97;;;-2.10;99.90;;;;;;5052091;28;20033;-59
2023/03/05 04:02:36;;;;;;;82.70;50.90;;;-2.10;99.90;;;;;;5052052;28;20104;-59
2023/03/05 04:05:02;;;;;;;81.00;52.03;;;-2.00;99.90;;;;;;5051636;28;20478;-59
2023/03/05 04:07:28;;;;;;;84.03;51.03;;;-1.90;99.90;;;;;;5051828;28;20108;-59
2023/03/05 04:09:54;;;;;;;85.72;51.20;;;-2.00;99.90;;;;;;5051985;28;20059;-59
2023/03/05 04:12:20;;;;;;;84.80;50.40;;;-1.90;99.90;;;;;;5052421;28;20033;-59
2023/03/05 04:14:48;;;;;;;82.65;49.97;;;-2.00;99.90;;;;;;5051866;28;20501;-59
2023/03/05 04:17:14;;;;;;;86.70;53.05;;;-2.10;99.90;;;;;;5051864;28;20025;-60
2023/03/05 04:19:41;;;;;;;89.63;54.80;;;-2.00;99.90;;;;;;5051603;28;20043;-59
2023/03/05 04:22:13;;;;;;;85.95;51.55;;;-2.10;99.90;;;;;;5051765;28;20052;-59
2023/03/05 04:24:39;;;;;;;91.60;54.28;;;-2.00;99.90;;;;;;5051933;28;20029;-59
2023/03/05 04:27:05;;;;;;;84.72;53.58;;;-2.00;99.90;;;;;;5051763;28;20108;-59
2023/03/05 04:29:31;;;;;;;91.22;54.20;;;-2.00;99.90;;;;;;5051918;28;20104;-59
2023/03/05 04:31:57;;;;;;;89.50;55.10;;;-2.10;99.90;;;;;;5051946;28;20033;-59
2023/03/05 04:34:23;;;;;;;108.05;61.88;;;-2.20;99.90;;;;;;5051631;28;20033;-60
2023/03/05 04:36:49;;;;;;;105.00;58.78;;;-2.20;99.90;;;;;;5051547;28;20111;-60
2023/03/05 04:39:15;;;;;;;110.15;62.78;;;-2.20;99.90;;;;;;5050482;28;20037;-59
2023/03/05 04:41:40;;;;;;;86.28;53.00;;;-2.20;99.90;;;;;;5051687;28;20385;-59
2023/03/05 04:44:06;;;;;;;97.88;56.83;;;-2.20;99.90;;;;;;5051932;28;20090;-60
2023/03/05 04:46:32;;;;;;;114.30;64.03;;;-2.10;99.90;;;;;;5051331;28;20082;-60
2023/03/05 04:48:58;;;;;;;127.85;72.25;;;-1.80;99.90;;;;;;5051484;28;20105;-59
2023/03/05 04:51:24;;;;;;;121.25;68.53;;;-1.80;99.90;;;;;;5051278;28;20028;-59
2023/03/05 04:53:50;;;;;;;132.70;74.88;;;-1.90;99.90;;;;;;5051662;28;20039;-59
2023/03/05 04:56:16;;;;;;;122.43;68.38;;;-1.90;99.90;;;;;;5051489;28;20025;-59
2023/03/05 04:58:41;;;;;;;107.53;60.83;;;-2.00;99.90;;;;;;5051479;28;20021;-59
2023/03/05 05:01:07;;;;;;;105.57;58.63;;;-2.10;99.90;;;;;;5051239;28;20032;-60
2023/03/05 05:03:33;;;;;;;110.10;58.53;;;-2.10;99.90;;;;;;5051827;28;20036;-60
2023/03/05 05:06:00;;;;;;;117.70;63.28;;;-2.00;99.90;;;;;;5051430;28;20367;-60
2023/03/05 05:08:26;;;;;;;225.20;101.93;;;-1.90;99.90;;;;;;5053491;28;20071;-59
2023/03/05 05:11:00;;;;;;;157.45;75.53;;;-1.90;99.90;;;;;;5055394;28;20540;-59
2023/03/05 05:13:26;;;;;;;125.28;65.60;;;-2.10;99.90;;;;;;5054723;28;20041;-59
2023/03/05 05:15:52;;;;;;;142.45;69.47;;;-2.30;99.90;;;;;;5054640;28;20478;-59
2023/03/05 05:18:18;;;;;;;131.45;67.32;;;-2.40;99.90;;;;;;5054700;28;20508;-60
2023/03/05 05:20:44;;;;;;;123.40;65.40;;;-2.40;99.90;;;;;;5054990;28;20104;-59
2023/03/05 05:23:10;;;;;;;103.07;59.90;;;-2.40;99.90;;;;;;5054697;28;20033;-60
2023/03/05 05:25:36;;;;;;;101.70;59.10;;;-2.40;99.90;;;;;;5055289;28;20029;-59
2023/03/05 05:28:02;;;;;;;95.25;57.45;;;-2.40;99.90;;;;;;5054747;28;20099;-59
2023/03/05 05:30:27;;;;;;;89.68;54.25;;;-2.60;99.90;;;;;;5054407;28;20029;-59
2023/03/05 05:32:53;;;;;;;88.90;54.38;;;-2.60;99.90;;;;;;5054813;28;20520;-59
2023/03/05 05:35:19;;;;;;;86.03;52.83;;;-2.70;99.90;;;;;;5054548;28;20375;-59
2023/03/05 05:37:44;;;;;;;97.78;57.70;;;-2.60;99.90;;;;;;5054547;28;20025;-59
2023/03/05 05:40:10;;;;;;;110.50;61.80;;;-2.50;99.90;;;;;;5054918;28;20477;-60
2023/03/05 05:42:36;;;;;;;117.13;63.72;;;-2.20;99.90;;;;;;5054550;28;20024;-59
2023/03/05 05:45:02;;;;;;;123.18;67.18;;;-2.10;99.90;;;;;;5053930;28;20464;-59
2023/03/05 05:47:29;;;;;;;147.30;88.32;;;-2.10;99.90;;;;;;5054074;28;20440;-59
2023/03/05 05:49:55;;;;;;;162.88;93.82;;;-2.10;99.90;;;;;;5054349;28;20047;-59
2023/03/05 05:52:22;;;;;;;130.98;74.15;;;-2.30;99.90;;;;;;5054432;28;20029;-59
2023/03/05 05:54:48;;;;;;;124.50;71.13;;;-2.20;99.90;;;;;;5054170;28;20028;-60
2023/03/05 05:57:13;;;;;;;154.10;90.72;;;-2.20;99.90;;;;;;5054195;28;20037;-60
2023/03/05 05:59:40;;;;;;;142.40;81.10;;;-2.30;99.90;;;;;;5054179;28;20044;-59
2023/03/05 06:02:10;;;;;;;131.02;78.15;;;-2.40;99.90;;;;;;5053982;28;20096;-59
2023/03/05 06:04:36;;;;;;;113.13;60.08;;;-2.30;99.90;;;;;;5054060;28;20485;-59
2023/03/05 06:07:02;;;;;;;107.53;60.08;;;-2.20;99.90;;;;;;5054002;28;20493;-59
2023/03/05 06:09:28;;;;;;;110.57;59.88;;;-2.00;99.90;;;;;;5054294;28;20116;-59
2023/03/05 06:11:54;;;;;;;119.88;67.60;;;-2.00;99.90;;;;;;5053804;28;20120;-59
2023/03/05 06:14:20;;;;;;;99.43;55.88;;;-2.10;99.90;;;;;;5053385;28;20502;-59
2023/03/05 06:16:45;;;;;;;104.63;53.70;;;-2.20;99.90;;;;;;5053699;28;20040;-59
2023/03/05 06:19:13;;;;;;;108.60;61.88;;;-2.20;99.90;;;;;;5053099;28;20025;-59
2023/03/05 06:21:39;;;;;;;114.53;66.10;;;-2.60;99.90;;;;;;5053694;28;20052;-59
2023/03/05 06:24:05;;;;;;;116.85;65.30;;;-2.60;99.90;;;;;;5053517;28;20029;-59
2023/03/05 06:26:31;;;;;;;123.03;67.10;;;-2.70;99.90;;;;;;5053539;28;20028;-59
2023/03/05 06:28:57;;;;;;;111.13;61.42;;;-2.60;99.90;;;;;;5053523;28;20028;-59
2023/03/05 06:31:25;;;;;;;107.07;59.33;;;-2.60;99.90;;;;;;5053154;28;20240;-59
2023/03/05 06:33:54;;;;;;;102.65;58.40;;;-2.70;99.90;;;;;;5053323;28;20029;-59
2023/03/05 06:36:22;;;;;;;91.13;53.92;;;-2.80;99.90;;;;;;5053582;28;20047;-59
2023/03/05 06:38:48;;;;;;;94.95;53.92;;;-2.70;99.90;;;;;;5053313;28;20025;-60
2023/03/05 06:41:16;;;;;;;90.40;53.00;;;-2.70;99.90;;;;;;5053137;28;20029;-59
2023/03/05 06:43:44;;;;;;;88.40;51.72;;;-2.60;99.90;;;;;;5052760;28;20087;-59
2023/03/05 06:46:17;;;;;;;88.00;50.85;;;-2.50;99.90;;;;;;5052921;28;20560;-60
2023/03/05 06:48:43;;;;;;;97.30;53.65;;;-2.30;99.90;;;;;;5052839;28;20029;-59
2023/03/05 06:51:16;;;;;;;91.40;50.45;;;-2.10;99.90;;;;;;5051514;28;20070;-60
2023/03/05 06:53:44;;;;;;;89.25;51.78;;;-2.00;99.90;;;;;;5053296;28;20032;-59
2023/03/05 06:56:12;;;;;;;88.72;51.90;;;-1.70;99.90;;;;;;5052846;28;20033;-59
2023/03/05 06:58:41;;;;;;;91.35;53.03;;;-1.30;99.90;;;;;;5052455;28;20033;-60
2023/03/05 07:01:07;;;;;;;100.28;58.75;;;-0.80;99.90;;;;;;5052618;28;20025;-59
2023/03/05 07:03:35;;;;;;;87.78;55.67;;;-0.30;99.90;;;;;;5053084;28;20482;-59
2023/03/05 07:06:05;;;;;;;90.68;53.65;;;0.50;99.90;;;;;;5052592;28;20028;-59
2023/03/05 07:08:31;;;;;;;85.97;50.92;;;1.10;99.90;;;;;;5052692;28;20021;-59
2023/03/05 07:10:57;;;;;;;85.18;49.30;;;1.40;99.90;;;;;;5052917;28;20032;-61
2023/03/05 07:13:23;;;;;;;85.72;51.17;;;2.30;99.90;;;;;;5051970;28;20056;-61
2023/03/05 07:15:48;;;;;;;93.15;57.90;;;2.70;99.90;;;;;;5052561;28;20025;-60
2023/03/05 07:18:14;;;;;;;90.22;53.58;;;2.80;99.90;;;;;;5052539;28;20500;-61
2023/03/05 07:20:40;;;;;;;82.80;50.85;;;3.90;99.90;;;;;;5052512;28;20090;-60
2023/03/05 07:23:06;;;;;;;84.07;52.97;;;5.00;99.90;;;;;;5052896;28;20029;-60
2023/03/05 07:25:34;;;;;;;85.65;55.53;;;6.20;99.90;;;;;;5052416;28;20531;-60
2023/03/05 07:27:59;;;;;;;77.78;49.05;;;5.70;99.90;;;;;;5051926;28;20056;-61
2023/03/05 07:30:25;;;;;;;86.97;53.03;;;5.70;99.90;;;;;;5051926;28;20472;-61
2023/03/05 07:32:51;;;;;;;122.65;72.68;;;5.00;99.90;;;;;;5052286;28;20108;-61
2023/03/05 07:35:17;;;;;;;124.35;75.88;;;5.00;99.90;;;;;;5052202;28;20036;-61
2023/03/05 07:37:42;;;;;;;120.97;74.10;;;7.20;99.90;;;;;;5052263;28;20024;-61
2023/03/05 07:40:09;;;;;;;101.82;64.43;;;8.90;99.90;;;;;;5052324;28;20385;-61
2023/03/05 07:42:35;;;;;;;93.55;60.05;;;9.90;99.90;;;;;;5052390;28;20505;-61
2023/03/05 07:45:00;;;;;;;85.45;55.60;;;10.80;99.90;;;;;;5052036;28;20048;-61
2023/03/05 07:47:26;;;;;;;84.25;56.17;;;11.50;99.90;;;;;;5051907;28;20502;-61
2023/03/05 07:49:52;;;;;;;95.47;66.55;;;10.80;99.90;;;;;;5052202;28;20079;-61
2023/03/05 07:52:18;;;;;;;85.43;58.13;;;11.40;99.90;;;;;;5052065;28;20044;-61
2023/03/05 07:54:43;;;;;;;81.20;66.95;;;11.40;99.90;;;;;;5052170;28;20048;-61
2023/03/05 07:57:12;;;;;;;75.18;63.05;;;11.10;99.90;;;;;;5052231;28;20080;-62
2023/03/05 07:59:38;;;;;;;68.68;59.95;;;11.80;99.90;;;;;;5051761;28;20429;-62
2023/03/05 08:02:04;;;;;;;67.00;55.60;;;12.10;99.90;;;;;;5052211;28;20033;-62
2023/03/05 08:04:30;;;;;;;68.15;52.90;;;13.00;99.90;;;;;;5052456;28;20104;-62
2023/03/05 08:06:58;;;;;;;61.67;49.83;;;13.50;99.90;;;;;;5051788;28;20444;-61
2023/03/05 08:09:23;;;;;;;59.45;49.92;;;14.10;99.90;;;;;;5051963;28;20029;-62
2023/03/05 08:11:49;;;;;;;63.08;49.72;;;13.40;99.90;;;;;;5051486;28;20029;-61
2023/03/05 08:14:15;;;;;;;59.05;47.35;;;14.20;99.90;;;;;;5051612;28;20424;-61
2023/03/05 08:16:40;;;;;;;55.22;47.53;;;15.30;99.90;;;;;;5052246;28;20416;-61
2023/03/05 08:19:07;;;;;;;55.72;44.28;;;14.70;99.90;;;;;;5050538;28;20478;-62
2023/03/05 08:21:35;;;;;;;50.45;41.05;;;16.40;99.90;;;;;;5051835;28;20482;-61
2023/03/05 08:24:03;;;;;;;47.60;37.45;;;17.60;99.90;;;;;;5052127;28;20029;-61
2023/03/05 08:26:33;;;;;;;45.10;36.20;;;16.90;99.90;;;;;;5051419;28;20029;-62
2023/03/05 08:28:58;;;;;;;44.33;36.25;;;17.20;99.90;;;;;;5051786;28;20032;-62
2023/03/05 08:31:26;;;;;;;48.00;38.67;;;18.60;98.40;;;;;;5051878;28;20025;-62
2023/03/05 08:33:54;;;;;;;43.40;37.50;;;18.10;98.10;;;;;;5051833;28;20059;-62
2023/03/05 08:36:20;;;;;;;49.03;38.95;;;18.60;97.70;;;;;;5051522;28;20017;-62
2023/03/05 08:38:47;;;;;;;49.95;40.38;;;17.90;96.90;;;;;;5051436;28;20448;-61
2023/03/05 08:41:14;;;;;;;46.40;37.97;;;19.00;96.50;;;;;;5051988;28;20100;-62
2023/03/05 08:43:40;;;;;;;45.08;37.22;;;20.90;94.70;;;;;;5053986;28;20121;-62
2023/03/05 08:46:07;;;;;;;46.55;38.55;;;20.90;94.90;;;;;;5055499;28;20032;-62
2023/03/05 08:48:33;;;;;;;47.90;39.03;;;21.90;92.70;;;;;;5055375;28;20048;-62
2023/03/05 08:51:09;;;;;;;46.20;38.20;;;21.00;92.80;;;;;;5055464;28;20082;-62
2023/03/05 08:53:35;;;;;;;41.63;34.95;;;21.00;92.30;;;;;;5055173;28;20524;-62
2023/03/05 08:56:01;;;;;;;45.72;37.88;;;23.20;92.70;;;;;;5054985;28;20053;-62
2023/03/05 08:58:27;;;;;;;45.75;37.58;;;21.30;91.00;;;;;;5055716;28;20060;-62
2023/03/05 09:00:53;;;;;;;43.83;36.55;;;21.90;91.70;;;;;;5055031;28;20044;-62
2023/03/05 09:03:18;;;;;;;46.90;37.88;;;23.30;91.50;;;;;;5055148;28;20021;-62
2023/03/05 09:05:44;;;;;;;47.67;39.63;;;23.10;88.60;;;;;;5055279;28;20033;-62
2023/03/05 09:08:10;;;;;;;48.75;38.83;;;22.20;89.80;;;;;;5055131;28;20044;-62
2023/03/05 09:10:36;;;;;;;47.25;39.47;;;21.90;90.20;;;;;;5055214;28;20029;-62
2023/03/05 09:13:03;;;;;;;45.90;38.83;;;23.10;90.10;;;;;;5054730;28;20049;-62
2023/03/05 09:15:29;;;;;;;47.30;37.70;;;24.50;87.10;;;;;;5054892;28;20028;-62
2023/03/05 09:17:55;;;;;;;50.30;40.83;;;25.50;88.10;;;;;;5055031;28;20127;-62
2023/03/05 09:20:21;;;;;;;45.88;37.88;;;25.30;86.00;;;;;;5055023;28;20021;-63
2023/03/05 09:22:47;;;;;;;45.20;37.75;;;27.30;86.20;;;;;;5054456;28;20033;-63
2023/03/05 09:25:12;;;;;;;48.72;39.45;;;28.60;82.80;;;;;;5055115;28;20021;-63
2023/03/05 09:27:38;;;;;;;48.20;39.08;;;27.60;80.00;;;;;;5054751;28;20025;-62
2023/03/05 09:30:06;;;;;;;49.22;38.50;;;27.10;79.70;;;;;;5054698;28;20448;-63
2023/03/05 09:32:31;;;;;;;48.47;39.78;;;26.00;80.20;;;;;;5054673;28;20498;-62
2023/03/05 09:34:57;;;;;;;46.10;37.88;;;25.10;81.70;;;;;;5054710;28;20025;-63
2023/03/05 09:37:24;;;;;;;50.60;38.03;;;28.10;81.00;;;;;;5054493;28;20036;-63
2023/03/05 09:39:49;;;;;;;47.10;37.80;;;27.50;79.90;;;;;;5054433;28;20555;-63
2023/03/05 09:42:40;;;;;;;46.67;39.10;;;27.90;78.90;;;;;;5054563;28;20024;-63
2023/03/05 09:45:12;;;;;;;46.92;36.78;;;27.50;78.50;;;;;;5054575;28;20082;-62
2023/03/05 09:48:30;;;;;;;46.33;38.03;;;27.50;81.10;;;;;;5054033;28;20055;-62
2023/03/05 09:51:03;;;;;;;50.97;37.60;;;26.90;79.60;;;;;;5011230;28;20605;-62
2023/03/05 09:53:35;;;;;;;46.83;36.92;;;26.90;81.80;;;;;;5010092;28;20126;-60
2023/03/05 09:56:09;;;;;;;48.50;36.10;;;27.10;80.00;;;;;;5010692;28;20054;-62
2023/03/05 09:58:37;;;;;;;50.05;38.17;;;26.20;80.10;;;;;;5012223;28;20030;-61
2023/03/05 10:01:10;;;;;;;47.22;37.22;;;25.80;80.00;;;;;;5012415;28;20026;-61
2023/03/05 10:03:57;;;;;;;45.38;37.33;;;26.00;81.30;;;;;;5012478;28;20033;-61
2023/03/05 10:06:27;;;;;;;44.25;34.50;;;25.20;81.60;;;;;;5011719;28;20034;-62
2023/03/05 10:09:04;;;;;;;43.58;33.58;;;24.70;83.50;;;;;;5011984;28;20042;-62
2023/03/05 10:11:53;;;;;;;52.58;38.75;;;23.90;85.80;;;;;;5012035;28;20057;-61
2023/03/05 10:14:29;;;;;;;44.08;34.00;;;23.30;84.60;;;;;;5012129;28;20053;-61
2023/03/05 10:16:57;;;;;;;46.40;34.80;;;23.60;82.80;;;;;;5011689;28;20025;-60
2023/03/05 10:19:25;;;;;;;47.88;37.55;;;22.80;81.60;;;;;;5011848;28;20172;-61
2023/03/05 10:22:27;;;;;;;47.78;35.40;;;20.20;86.50;;;;;;5011500;28;20045;-62
2023/03/05 10:25:08;;;;;;;46.38;33.60;;;20.20;89.80;;;;;;5011650;28;20030;-62
2023/03/05 10:27:56;;;;;;;47.13;33.83;;;21.40;88.60;;;;;;5029464;28;20053;-61
2023/03/05 10:31:02;;;;;;;45.55;33.67;;;21.50;87.10;;;;;;5053597;28;20074;-62
2023/03/05 10:33:41;;;;;;;72.13;58.40;;;21.20;86.40;;;;;;5053452;28;20076;-61
2023/03/05 10:36:25;;;;;;;46.72;35.28;;;20.00;88.10;;;;;;5052991;28;20013;-62
2023/03/05 10:39:14;;;;;;;52.75;40.70;;;20.50;89.00;;;;;;5053268;28;20053;-61
2023/03/05 10:42:04;;;;;;;49.10;34.88;;;21.30;89.60;;;;;;5050656;28;20047;-62
2023/03/05 10:45:01;;;;;;;46.53;34.78;;;21.20;88.30;;;;;;5053602;28;20104;-61
2023/03/05 10:47:35;;;;;;;74.28;60.15;;;21.80;89.20;;;;;;5053163;28;20029;-61
2023/03/05 10:50:01;;;;;;;48.60;36.95;;;21.50;87.40;;;;;;5053143;28;20021;-62
2023/03/05 10:52:39;;;;;;;44.03;33.47;;;21.40;88.10;;;;;;5053014;28;20037;-61
2023/03/05 10:55:16;;;;;;;71.50;63.30;;;20.60;88.80;;;;;;5052770;28;20108;-62
2023/03/05 10:57:42;;;;;;;42.85;32.58;;;18.80;91.50;;;;;;5053152;28;20045;-62
2023/03/05 11:00:19;;;;;;;45.15;34.72;;;19.10;90.60;;;;;;5052992;28;20025;-61
2023/03/05 11:03:07;;;;;;;42.05;30.02;;;20.10;90.30;;;;;;5052792;28;20029;-62
2023/03/05 11:05:41;;;;;;;42.53;31.15;;;20.80;90.60;;;;;;5051839;28;20025;-62
2023/03/05 11:08:21;;;;;;;38.50;29.80;;;21.20;86.70;;;;;;5052550;28;20021;-63
2023/03/05 11:11:00;;;;;;;40.42;30.42;;;20.10;90.30;;;;;;5052801;28;20052;-64
2023/03/05 11:13:27;;;;;;;40.13;30.92;;;20.20;90.70;;;;;;5052343;28;20567;-63
2023/03/05 11:16:04;;;;;;;41.72;29.75;;;20.50;88.60;;;;;;5053041;28;20017;-64
2023/03/05 11:18:33;;;;;;;37.22;29.45;;;20.40;90.00;;;;;;5052424;28;20021;-64
2023/03/05 11:21:11;;;;;;;38.53;29.73;;;20.90;90.50;;;;;;5051565;28;20386;-64
2023/03/05 11:23:37;;;;;;;38.33;29.85;;;21.50;88.60;;;;;;5049847;28;20017;-64
2023/03/05 11:26:11;;;;;;;38.00;28.70;;;20.60;87.70;;;;;;5050946;28;20452;-64
2023/03/05 11:28:59;;;;;;;39.20;28.77;;;19.90;89.30;;;;;;5049631;28;20108;-64
2023/03/05 11:31:27;;;;;;;39.22;31.80;;;17.60;90.10;;;;;;5052001;28;20033;-64
2023/03/05 11:34:00;;;;;;;28.33;22.58;;;17.50;90.70;;;;;;5052452;28;20036;-64
2023/03/05 11:36:38;;;;;;;29.48;23.92;;;18.90;90.90;;;;;;5052409;28;20550;-64
2023/03/05 11:39:06;;;;;;;31.63;25.00;;;19.00;86.60;;;;;;5052395;28;20068;-63
2023/03/05 11:41:43;;;;;;;31.55;25.20;;;18.20;89.40;;;;;;5052357;28;20104;-65
2023/03/05 11:44:49;;;;;;;30.55;24.30;;;18.80;87.90;;;;;;5051085;28;20504;-66
2023/03/05 11:47:33;;;;;;;28.88;22.52;;;18.20;88.00;;;;;;5050889;28;20481;-63
2023/03/05 11:50:20;;;;;;;32.05;25.00;;;19.20;89.00;;;;;;5032086;28;20021;-64
2023/03/05 11:52:53;;;;;;;32.22;24.25;;;19.80;89.80;;;;;;5032063;28;20045;-63
2023/03/05 11:55:34;;;;;;;49.87;38.00;;;20.20;88.00;;;;;;5032064;28;20057;-65
2023/03/05 11:58:37;;;;;;;51.67;38.08;;;19.70;89.70;;;;;;5032226;28;20029;-64
2023/03/05 12:01:12;;;;;;;62.10;46.47;;;19.80;87.70;;;;;;5031747;28;20022;-65
2023/03/05 12:03:38;;;;;;;31.02;24.58;;;19.50;89.00;;;;;;5032061;28;20021;-63
2023/03/05 12:06:19;;;;;;;30.10;23.45;;;19.30;89.40;;;;;;5031777;28;20044;-64
2023/03/05 12:08:49;;;;;;;37.05;28.95;;;19.00;85.80;;;;;;5031991;28;20020;-64
2023/03/05 12:11:38;;;;;;;32.47;25.00;;;18.70;87.60;;;;;;5030633;28;20029;-64
2023/03/05 12:14:22;;;;;;;29.42;21.70;;;19.40;89.50;;;;;;5031810;28;20037;-64
2023/03/05 12:17:12;;;;;;;31.92;24.08;;;19.40;87.20;;;;;;5033030;28;20021;-64
2023/03/05 12:20:20;;;;;;;23.50;19.50;;;18.20;87.20;;;;;;5035925;28;20448;-64
2023/03/05 12:22:46;;;;;;;29.40;22.33;;;18.70;85.80;;;;;;5013799;28;20065;-64
2023/03/05 12:25:43;;;;;;;34.20;26.92;;;18.60;86.20;;;;;;5013900;28;20515;-64
2023/03/05 12:28:14;;;;;;;27.15;23.90;;;17.50;88.60;;;;;;5013719;28;20100;-64
2023/03/05 12:30:40;;;;;;;30.70;23.60;;;17.80;88.60;;;;;;5013638;28;20069;-64
2023/03/05 12:33:31;;;;;;;46.08;40.78;;;17.30;89.10;;;;;;5013605;28;20074;-64
2023/03/05 12:36:21;;;;;;;28.05;21.83;;;16.80;90.90;;;;;;5014373;28;20034;-64
2023/03/05 12:38:50;;;;;;;29.85;22.85;;;17.40;91.20;;;;;;5014100;28;20125;-64